Helas — C4AZ2 — position and weather

sailwx.info

Track history (hours):
 
Tides and Currents Weather Stations Pressure Air Temp Water Temp Dewpoint Dewpoint Depression Visibility Wind Speed Wind Dir Waves Ship Positions

Helas

Last reported at 2017-Nov-19 04:48 UTC. Time now 2017-Nov-20 02:22 UTC.
Position N 47°13' W 007°05'.

Length 89 m; draft 5.6 m.

Type: Cargo ship. MMSI: 210031000.

Date/timePositionNaut miles runAvg speedWind from/ knotsBaromVisibWave heightAir tempDewpointWater temp
2017-Nov-19 04:48N 47°13' W 007°05'3 9.7
2017-Nov-19 04:30N 47°16' W 007°03'5 9.6
2017-Nov-19 04:00N 47°20' W 006°59'5 9.1
2017-Nov-19 03:28N 47°24' W 006°56'4 8.8
2017-Nov-19 02:59N 47°28' W 006°53'4 8.4
2017-Nov-19 02:28N 47°32' W 006°50'7 8.3
2017-Nov-19 01:38N 47°38' W 006°47'1 8.3
2017-Nov-19 01:29N 47°40' W 006°46'5 8.2
2017-Nov-19 00:54N 47°44' W 006°43'3 8.5
2017-Nov-19 00:30N 47°47' W 006°41'5 8.9
2017-Nov-18 23:54N 47°51' W 006°37'4 9.2
2017-Nov-18 23:26N 47°55' W 006°33'5 9.6
2017-Nov-18 22:55N 47°59' W 006°30'410.0
2017-Nov-18 22:28N 48°03' W 006°26'610.3
2017-Nov-18 21:54N 48°08' W 006°22'510.5
2017-Nov-18 21:28N 48°12' W 006°19'510.8
2017-Nov-18 21:00N 48°17' W 006°15'910.8
2017-Nov-18 20:10N 48°25' W 006°09'311.0
2017-Nov-18 19:52N 48°28' W 006°06'610.5
2017-Nov-18 19:16N 48°33' W 006°02'310.3
2017-Nov-18 19:00N 48°36' W 005°60'5 9.9
2017-Nov-18 18:30N 48°40' W 005°56'5 9.7
2017-Nov-18 18:00N 48°44' W 005°53'4 9.0
2017-Nov-18 17:30N 48°48' W 005°50'4 8.6
2017-Nov-18 17:00N 48°52' W 005°46'4 7.9
2017-Nov-18 16:29N 48°54' W 005°41'4 7.7
2017-Nov-18 15:55N 48°57' W 005°36'4 7.6
2017-Nov-18 15:24N 48°59' W 005°31'4 7.7
2017-Nov-18 14:56N 49°01' W 005°26'4 7.8
2017-Nov-18 14:23N 49°03' W 005°20'4 8.0
2017-Nov-18 13:57N 49°04' W 005°15'4 8.4
2017-Nov-18 13:30N 49°06' W 005°11'4 8.7
2017-Nov-18 13:00N 49°09' W 005°05'5 9.3
2017-Nov-18 12:28N 49°11' W 004°59'5 9.7
2017-Nov-18 11:57N 49°14' W 004°52'510.3
2017-Nov-18 11:29N 49°16' W 004°46'510.5
2017-Nov-18 11:00N 49°19' W 004°39'510.7
2017-Nov-18 10:30N 49°22' W 004°32'610.8
2017-Nov-18 09:59N 49°25' W 004°25'610.6
2017-Nov-18 09:27N 49°28' W 004°17'510.4
2017-Nov-18 08:58N 49°30' W 004°11'510.0
2017-Nov-18 08:26N 49°33' W 004°03'9 9.4
2017-Nov-18 07:30N 49°37' W 003°52'4 8.7
2017-Nov-18 07:00N 49°40' W 003°46'5 8.3
2017-Nov-18 06:26N 49°42' W 003°40'10 8.0
2017-Nov-18 05:08N 49°47' W 003°26'2 8.1
2017-Nov-18 04:51N 49°48' W 003°23'3 8.2
2017-Nov-18 04:30N 49°50' W 003°19'6 8.7
2017-Nov-18 03:50N 49°53' W 003°11'3 9.3
2017-Nov-18 03:29N 49°54' W 003°07'5 9.9
2017-Nov-18 03:00N 49°57' W 003°00'510.5
2017-Nov-18 02:30N 49°59' W 002°53'611.2
2017-Nov-18 01:58N 50°01' W 002°44'511.8
2017-Nov-18 01:30N 50°03' W 002°36'2712.0
2017-Nov-17 23:16N 50°10' W 001°56'310.5
2017-Nov-17 23:00N 50°11' W 001°52'5 9.8
2017-Nov-17 22:30N 50°12' W 001°45'4 8.9
2017-Nov-17 22:00N 50°13' W 001°38'4 8.1
2017-Nov-17 21:29N 50°15' W 001°32'4 7.3
2017-Nov-17 20:58N 50°16' W 001°26'3 6.8
2017-Nov-17 20:30N 50°17' W 001°21'38 7.9
2017-Nov-17 15:45N 50°27' W 000°24'310.8
2017-Nov-17 15:30N 50°28' W 000°21'510.9
2017-Nov-17 15:00N 50°30' W 000°12'511.0
2017-Nov-17 14:30N 50°31' W 000°04'611.0
2017-Nov-17 14:00N 50°33' E 000°04'611.0
2017-Nov-17 13:30N 50°34' E 000°12'510.9
2017-Nov-17 13:00N 50°36' E 000°21'510.7
2017-Nov-17 12:30N 50°37' E 000°29'510.3
2017-Nov-17 12:00N 50°39' E 000°36'510.0
2017-Nov-17 11:30N 50°42' E 000°43'5 9.6
2017-Nov-17 11:00N 50°45' E 000°49'5 9.3
2017-Nov-17 10:30N 50°48' E 000°55'4 9.0
2017-Nov-17 10:00N 50°50' E 001°00'4 9.0
2017-Nov-17 09:30N 50°53' E 001°06'5 9.2
2017-Nov-17 09:00N 50°56' E 001°12'5 9.9
2017-Nov-17 08:30N 50°59' E 001°18'611.3
2017-Nov-17 08:00N 51°03' E 001°25'612.8
2017-Nov-17 07:30N 51°07' E 001°33'713.2
2017-Nov-17 07:00N 51°11' E 001°41'612.4
2017-Nov-17 06:30N 51°16' E 001°47'612.3
2017-Nov-17 06:00N 51°21' E 001°52'611.4
2017-Nov-17 05:30N 51°26' E 001°56'510.5
2017-Nov-17 05:00N 51°30' E 002°01'510.0
2017-Nov-17 04:30N 51°34' E 002°07'5 9.6
2017-Nov-17 04:00N 51°38' E 002°12'5 9.2
2017-Nov-17 03:28N 51°41' E 002°17'76 8.7
2017-Nov-16 18:48N 52°30' E 003°51'3 9.3
2017-Nov-16 18:28N 52°30' E 003°56'4 9.0
2017-Nov-16 18:00N 52°30' E 004°03'4 8.9
2017-Nov-16 17:30N 52°30' E 004°11'4 8.7
2017-Nov-16 17:00N 52°30' E 004°18'4 8.8
2017-Nov-16 16:30N 52°29' E 004°25'4 9.0
2017-Nov-16 16:00N 52°28' E 004°32'2 4.9
2017-Nov-16 15:30N 52°28' E 004°36'1 2.3
2017-Nov-16 15:00N 52°28' E 004°38'0 0.1
2017-Nov-16 14:00N 52°28' E 004°38'0 0.2
2017-Nov-16 13:30N 52°28' E 004°38'0 0.0
2017-Nov-16 13:00N 52°28' E 004°38'0 0.1
2017-Nov-16 12:30N 52°28' E 004°38'0 0.0
2017-Nov-16 12:00N 52°28' E 004°38'0 0.0
2017-Nov-16 11:30N 52°28' E 004°38'0 0.0
2017-Nov-16 11:00N 52°28' E 004°38'0 0.1
2017-Nov-16 10:30N 52°28' E 004°38'0 0.1
2017-Nov-16 10:00N 52°28' E 004°38'0 0.0
2017-Nov-16 09:30N 52°28' E 004°38'0 0.0
2017-Nov-16 09:00N 52°28' E 004°38'0 0.0
2017-Nov-16 08:30N 52°28' E 004°38'0 0.0
2017-Nov-16 08:00N 52°28' E 004°38'0 0.0
2017-Nov-16 07:29N 52°28' E 004°38'0 0.0
2017-Nov-16 06:59N 52°28' E 004°38'0 0.0
2017-Nov-16 06:26N 52°28' E 004°38'0 0.0
2017-Nov-16 05:59N 52°28' E 004°38'0 0.0
2017-Nov-16 05:29N 52°28' E 004°38'0 0.0
2017-Nov-16 04:59N 52°28' E 004°38'0 0.0
2017-Nov-16 04:29N 52°28' E 004°38'0 0.0
2017-Nov-16 03:59N 52°28' E 004°38'0 0.0
2017-Nov-16 03:29N 52°28' E 004°38'0 0.0
2017-Nov-16 02:59N 52°28' E 004°38'0 0.0
2017-Nov-16 02:29N 52°28' E 004°38'0 0.0
2017-Nov-16 01:59N 52°28' E 004°38'0 0.1
2017-Nov-16 01:29N 52°28' E 004°38'0 0.0
2017-Nov-16 00:59N 52°28' E 004°38'0 0.0
2017-Nov-16 00:29N 52°28' E 004°38'0 0.0
2017-Nov-15 23:59N 52°28' E 004°38'0 0.0
2017-Nov-15 23:29N 52°28' E 004°38'0 0.0
2017-Nov-15 22:59N 52°28' E 004°38'0 0.0
2017-Nov-15 22:26N 52°28' E 004°38'0 0.0
2017-Nov-15 21:59N 52°28' E 004°38'0 0.0
2017-Nov-15 21:29N 52°28' E 004°38'0 0.0
2017-Nov-15 20:58N 52°28' E 004°38'0 0.0
2017-Nov-15 20:28N 52°28' E 004°38'0 0.0
2017-Nov-15 19:58N 52°28' E 004°38'0 0.0
2017-Nov-15 19:28N 52°28' E 004°38'0 0.0
2017-Nov-15 18:58N 52°28' E 004°38'0 0.0
2017-Nov-15 18:28N 52°28' E 004°38'0 0.0
2017-Nov-15 17:58N 52°28' E 004°38'0 0.0
2017-Nov-15 17:28N 52°28' E 004°38'0 0.0
2017-Nov-15 16:55N 52°28' E 004°38'0 0.0
2017-Nov-15 16:28N 52°28' E 004°38'0 0.0
2017-Nov-15 15:58N 52°28' E 004°38'0 0.1
2017-Nov-15 15:28N 52°28' E 004°38'0 0.1
2017-Nov-15 14:58N 52°28' E 004°38'0 0.0
2017-Nov-15 14:25N 52°28' E 004°38'0 0.0
2017-Nov-15 13:58N 52°28' E 004°38'0 0.0
2017-Nov-15 13:30N 52°28' E 004°38'1 1.6
2017-Nov-15 13:00N 52°28' E 004°37'1 1.1
2017-Nov-15 12:30N 52°28' E 004°36'0 0.9
2017-Nov-15 12:01N 52°28' E 004°35'1 1.3
2017-Nov-15 11:30N 52°28' E 004°36'0 0.0
2017-Nov-15 11:00N 52°28' E 004°36'0 0.0
2017-Nov-15 10:30N 52°28' E 004°36'0 0.0
2017-Nov-15 10:00N 52°28' E 004°36'0 0.0
2017-Nov-15 09:30N 52°28' E 004°36'0 0.0
2017-Nov-15 09:00N 52°28' E 004°36'0 0.0
2017-Nov-15 08:30N 52°28' E 004°36'0 0.0
2017-Nov-15 08:00N 52°28' E 004°36'0 0.0
2017-Nov-15 07:30N 52°28' E 004°36'0 0.0
2017-Nov-15 07:00N 52°28' E 004°36'0 0.0
2017-Nov-15 06:30N 52°28' E 004°36'0 0.0
2017-Nov-15 06:00N 52°28' E 004°36'0 0.0
2017-Nov-15 05:30N 52°28' E 004°36'0 0.0
2017-Nov-15 05:00N 52°28' E 004°36'0 0.0
2017-Nov-15 04:30N 52°28' E 004°36'0 0.0
2017-Nov-15 04:00N 52°28' E 004°36'0 0.0
2017-Nov-15 03:30N 52°28' E 004°36'0 0.0
2017-Nov-15 03:00N 52°28' E 004°36'0 0.0
2017-Nov-15 02:30N 52°28' E 004°36'0 0.0
2017-Nov-15 02:00N 52°28' E 004°36'0 0.1
2017-Nov-15 01:30N 52°28' E 004°36'0 0.1
2017-Nov-15 01:00N 52°28' E 004°36'0 0.0
2017-Nov-15 00:30N 52°28' E 004°36'0 0.0
2017-Nov-14 23:54N 52°28' E 004°36'0 0.0
2017-Nov-14 23:30N 52°28' E 004°36'0 0.0
2017-Nov-14 23:00N 52°28' E 004°36'0 0.0
2017-Nov-14 22:30N 52°28' E 004°36'0 0.0
2017-Nov-14 22:00N 52°28' E 004°36'2 4.7
2017-Nov-14 21:30N 52°28' E 004°32'4 8.8
2017-Nov-14 21:00N 52°28' E 004°25'4 8.4
2017-Nov-14 20:30N 52°29' E 004°18'5 9.0
2017-Nov-14 20:00N 52°29' E 004°11'4 8.6
2017-Nov-14 19:30N 52°28' E 004°04'4 8.5
2017-Nov-14 19:00N 52°27' E 003°57'4 8.0
2017-Nov-14 18:30N 52°25' E 003°51'4 8.0
2017-Nov-14 18:00N 52°23' E 003°46'4 8.1
2017-Nov-14 17:30N 52°21' E 003°40'4 8.0
2017-Nov-14 17:00N 52°19' E 003°35'4 8.2
2017-Nov-14 16:29N 52°16' E 003°29'54 9.6
2017-Nov-14 10:52N 51°38' E 002°28'510.5
2017-Nov-14 10:22N 51°34' E 002°23'510.6
2017-Nov-14 09:56N 51°31' E 002°18'510.7
2017-Nov-14 09:30N 51°27' E 002°13'510.3
2017-Nov-14 09:00N 51°22' E 002°10'510.4
2017-Nov-14 08:30N 51°17' E 002°07'510.0
2017-Nov-14 08:00N 51°13' E 002°02'510.2
2017-Nov-14 07:30N 51°10' E 001°56'5 9.9
2017-Nov-14 07:00N 51°07' E 001°49'5 9.5
2017-Nov-14 06:30N 51°04' E 001°44'5 9.1
2017-Nov-14 06:00N 51°00' E 001°40'4 8.1
2017-Nov-14 05:30N 50°57' E 001°35'4 7.9
2017-Nov-14 05:00N 50°54' E 001°31'4 7.3
2017-Nov-14 04:29N 50°51' E 001°29'297 7.6
2017-Nov-12 13:33N 48°48' W 005°32'6 6.4
2017-Nov-12 12:34N 48°43' W 005°37'0 6.6
2017-Nov-12 12:30N 48°43' W 005°37'5 6.8
2017-Nov-12 11:41N 48°38' W 005°41'3 7.1
2017-Nov-12 11:20N 48°36' W 005°43'3 6.5
2017-Nov-12 10:56N 48°33' W 005°42'3 6.8
2017-Nov-12 10:25N 48°30' W 005°40'6 7.1
2017-Nov-12 09:36N 48°24' W 005°37'3 7.3
2017-Nov-12 09:14N 48°22' W 005°36'2 7.6
2017-Nov-12 08:59N 48°20' W 005°35'4 7.5
2017-Nov-12 08:30N 48°17' W 005°33'4 7.7
2017-Nov-12 07:56N 48°12' W 005°31'3 7.8
2017-Nov-12 07:30N 48°09' W 005°30'4 7.7
2017-Nov-12 07:00N 48°06' W 005°28'4 7.7
2017-Nov-12 06:27N 48°02' W 005°25'3 7.6
2017-Nov-12 06:00N 47°58' W 005°24'4 7.5
2017-Nov-12 05:30N 47°55' W 005°22'4 7.2
2017-Nov-12 05:00N 47°51' W 005°20'4 7.0
2017-Nov-12 04:26N 47°48' W 005°18'3 6.7
2017-Nov-12 03:58N 47°45' W 005°17'3 6.7
2017-Nov-12 03:29N 47°42' W 005°15'3 6.5
2017-Nov-12 02:59N 47°39' W 005°13'4 6.5
2017-Nov-12 02:27N 47°35' W 005°12'3 6.3
2017-Nov-12 02:00N 47°33' W 005°10'4 6.6
2017-Nov-12 01:26N 47°29' W 005°09'20 6.5
2017-Nov-11 22:23N 47°10' W 004°59'50 6.8
2017-Nov-11 15:03N 46°23' W 004°36'0 6.1
2017-Nov-11 15:00N 46°23' W 004°36'3 6.2
2017-Nov-11 14:29N 46°20' W 004°34'151 7.3
2017-Nov-10 17:56N 43°58' W 003°22'3 7.2
2017-Nov-10 17:30N 43°55' W 003°21'6 7.2
2017-Nov-10 16:43N 43°50' W 003°18'2 7.4
2017-Nov-10 16:26N 43°48' W 003°17'3 7.5
2017-Nov-10 16:00N 43°45' W 003°16'4 7.7
2017-Nov-10 15:30N 43°41' W 003°14'4 7.9
2017-Nov-10 15:00N 43°38' W 003°12'4 7.8
2017-Nov-10 14:30N 43°34' W 003°11'4 8.1
2017-Nov-10 14:00N 43°30' W 003°09'4 8.1
2017-Nov-10 13:30N 43°26' W 003°07'4 8.2
2017-Nov-10 13:00N 43°23' W 003°05'1 2.5
2017-Nov-10 12:30N 43°22' W 003°04'0 0.0
2017-Nov-10 12:00N 43°22' W 003°04'0 0.0
2017-Nov-10 11:30N 43°22' W 003°04'0 0.0
2017-Nov-10 11:00N 43°22' W 003°04'0 0.0
2017-Nov-10 10:30N 43°22' W 003°04'0 0.0
2017-Nov-10 10:00N 43°22' W 003°04'0 0.0
2017-Nov-10 09:29N 43°22' W 003°04'0 0.0
2017-Nov-10 08:59N 43°22' W 003°04'0 0.0
2017-Nov-10 08:29N 43°22' W 003°04'0 0.0
2017-Nov-10 07:59N 43°22' W 003°04'0 0.0
2017-Nov-10 07:29N 43°22' W 003°04'0 0.0
2017-Nov-10 06:59N 43°22' W 003°04'0 0.0
2017-Nov-10 06:26N 43°22' W 003°04'0 0.0
2017-Nov-10 05:59N 43°22' W 003°04'0 0.0
2017-Nov-10 05:29N 43°22' W 003°04'0 0.0
2017-Nov-10 04:59N 43°22' W 003°04'0 0.0
2017-Nov-10 04:29N 43°22' W 003°04'0 0.0
2017-Nov-10 03:59N 43°22' W 003°04'0 0.0
2017-Nov-10 03:29N 43°22' W 003°04'0 0.0
2017-Nov-10 02:59N 43°22' W 003°04'0 0.0
2017-Nov-10 02:29N 43°22' W 003°04'0 0.0
2017-Nov-10 01:59N 43°22' W 003°04'0 0.0
2017-Nov-10 01:29N 43°22' W 003°04'0 0.0
2017-Nov-10 00:59N 43°22' W 003°04'0 0.0
2017-Nov-10 00:29N 43°22' W 003°04'0 0.0
2017-Nov-09 23:59N 43°22' W 003°04'0 0.0
2017-Nov-09 23:29N 43°22' W 003°04'0 0.0
2017-Nov-09 22:59N 43°22' W 003°04'0 0.0
2017-Nov-09 22:29N 43°22' W 003°04'0 0.0
2017-Nov-09 21:59N 43°22' W 003°04'0 0.0
2017-Nov-09 21:29N 43°22' W 003°04'0 0.0
2017-Nov-09 20:59N 43°22' W 003°04'0 0.0
2017-Nov-09 20:29N 43°22' W 003°04'0 0.0
2017-Nov-09 19:59N 43°22' W 003°04'0 0.0
2017-Nov-09 19:29N 43°22' W 003°04'0 0.0
2017-Nov-09 18:59N 43°22' W 003°04'0 0.0
2017-Nov-09 18:29N 43°22' W 003°04'0 0.0
2017-Nov-09 17:59N 43°22' W 003°04'0 0.0
2017-Nov-09 17:29N 43°22' W 003°04'0 0.0
2017-Nov-09 16:59N 43°22' W 003°04'0 0.0
2017-Nov-09 16:29N 43°22' W 003°04'0 0.0
2017-Nov-09 15:59N 43°22' W 003°04'0 0.0
2017-Nov-09 15:29N 43°22' W 003°04'0 0.0
2017-Nov-09 14:59N 43°22' W 003°04'0 0.0
2017-Nov-09 14:29N 43°22' W 003°04'0 0.0
2017-Nov-09 13:59N 43°22' W 003°04'0 0.0
2017-Nov-09 13:29N 43°22' W 003°04'0 0.0
2017-Nov-09 12:59N 43°22' W 003°04'0 0.0
2017-Nov-09 12:29N 43°22' W 003°04'0 0.8
2017-Nov-09 12:00N 43°21' W 003°03'1 2.2
2017-Nov-09 11:29N 43°20' W 003°02'0 0.0
2017-Nov-09 10:59N 43°20' W 003°02'0 0.0
2017-Nov-09 10:29N 43°20' W 003°02'0 0.0
2017-Nov-09 09:59N 43°20' W 003°02'0 0.0
2017-Nov-09 09:29N 43°20' W 003°02'0 0.0
2017-Nov-09 08:58N 43°20' W 003°02'0 0.0
2017-Nov-09 08:28N 43°20' W 003°02'0 0.0
2017-Nov-09 07:58N 43°20' W 003°02'0 0.0
2017-Nov-09 07:28N 43°20' W 003°02'0 0.0
2017-Nov-09 06:58N 43°20' W 003°02'0 0.0
2017-Nov-09 06:28N 43°20' W 003°02'0 0.0
2017-Nov-09 05:58N 43°20' W 003°02'0 0.0
2017-Nov-09 05:28N 43°20' W 003°02'0 0.0
2017-Nov-09 04:58N 43°20' W 003°02'  
Track history (hours):
 
Tides and Currents Weather Stations Pressure Air Temp Water Temp Dewpoint Dewpoint Depression Visibility Wind Speed Wind Dir Waves Ship Positions

Helas

Last reported at 2017-Nov-19 04:48 UTC. Time now 2017-Nov-20 02:22 UTC.
Position N 47°13' W 007°05'.

Length 89 m; draft 5.6 m.

Type: Cargo ship. MMSI: 210031000.

Date/timePositionNaut miles runAvg speedWind from/ knotsBaromVisibWave heightAir tempDewpointWater temp
2017-Nov-19 04:48N 47°13' W 007°05'3 9.7
2017-Nov-19 04:30N 47°16' W 007°03'5 9.6
2017-Nov-19 04:00N 47°20' W 006°59'5 9.1
2017-Nov-19 03:28N 47°24' W 006°56'4 8.8
2017-Nov-19 02:59N 47°28' W 006°53'4 8.4
2017-Nov-19 02:28N 47°32' W 006°50'7 8.3
2017-Nov-19 01:38N 47°38' W 006°47'1 8.3
2017-Nov-19 01:29N 47°40' W 006°46'5 8.2
2017-Nov-19 00:54N 47°44' W 006°43'3 8.5
2017-Nov-19 00:30N 47°47' W 006°41'5 8.9
2017-Nov-18 23:54N 47°51' W 006°37'4 9.2
2017-Nov-18 23:26N 47°55' W 006°33'5 9.6
2017-Nov-18 22:55N 47°59' W 006°30'410.0
2017-Nov-18 22:28N 48°03' W 006°26'610.3
2017-Nov-18 21:54N 48°08' W 006°22'510.5
2017-Nov-18 21:28N 48°12' W 006°19'510.8
2017-Nov-18 21:00N 48°17' W 006°15'910.8
2017-Nov-18 20:10N 48°25' W 006°09'311.0
2017-Nov-18 19:52N 48°28' W 006°06'610.5
2017-Nov-18 19:16N 48°33' W 006°02'310.3
2017-Nov-18 19:00N 48°36' W 005°60'5 9.9
2017-Nov-18 18:30N 48°40' W 005°56'5 9.7
2017-Nov-18 18:00N 48°44' W 005°53'4 9.0
2017-Nov-18 17:30N 48°48' W 005°50'4 8.6
2017-Nov-18 17:00N 48°52' W 005°46'4 7.9
2017-Nov-18 16:29N 48°54' W 005°41'4 7.7
2017-Nov-18 15:55N 48°57' W 005°36'4 7.6
2017-Nov-18 15:24N 48°59' W 005°31'4 7.7
2017-Nov-18 14:56N 49°01' W 005°26'4 7.8
2017-Nov-18 14:23N 49°03' W 005°20'4 8.0
2017-Nov-18 13:57N 49°04' W 005°15'4 8.4
2017-Nov-18 13:30N 49°06' W 005°11'4 8.7
2017-Nov-18 13:00N 49°09' W 005°05'5 9.3
2017-Nov-18 12:28N 49°11' W 004°59'5 9.7
2017-Nov-18 11:57N 49°14' W 004°52'510.3
2017-Nov-18 11:29N 49°16' W 004°46'510.5
2017-Nov-18 11:00N 49°19' W 004°39'510.7
2017-Nov-18 10:30N 49°22' W 004°32'610.8
2017-Nov-18 09:59N 49°25' W 004°25'610.6
2017-Nov-18 09:27N 49°28' W 004°17'510.4
2017-Nov-18 08:58N 49°30' W 004°11'510.0
2017-Nov-18 08:26N 49°33' W 004°03'9 9.4
2017-Nov-18 07:30N 49°37' W 003°52'4 8.7
2017-Nov-18 07:00N 49°40' W 003°46'5 8.3
2017-Nov-18 06:26N 49°42' W 003°40'10 8.0
2017-Nov-18 05:08N 49°47' W 003°26'2 8.1
2017-Nov-18 04:51N 49°48' W 003°23'3 8.2
2017-Nov-18 04:30N 49°50' W 003°19'6 8.7
2017-Nov-18 03:50N 49°53' W 003°11'3 9.3
2017-Nov-18 03:29N 49°54' W 003°07'5 9.9
2017-Nov-18 03:00N 49°57' W 003°00'510.5
2017-Nov-18 02:30N 49°59' W 002°53'611.2
2017-Nov-18 01:58N 50°01' W 002°44'511.8
2017-Nov-18 01:30N 50°03' W 002°36'2712.0
2017-Nov-17 23:16N 50°10' W 001°56'310.5
2017-Nov-17 23:00N 50°11' W 001°52'5 9.8
2017-Nov-17 22:30N 50°12' W 001°45'4 8.9
2017-Nov-17 22:00N 50°13' W 001°38'4 8.1
2017-Nov-17 21:29N 50°15' W 001°32'4 7.3
2017-Nov-17 20:58N 50°16' W 001°26'3 6.8
2017-Nov-17 20:30N 50°17' W 001°21'38 7.9
2017-Nov-17 15:45N 50°27' W 000°24'310.8
2017-Nov-17 15:30N 50°28' W 000°21'510.9
2017-Nov-17 15:00N 50°30' W 000°12'511.0
2017-Nov-17 14:30N 50°31' W 000°04'611.0
2017-Nov-17 14:00N 50°33' E 000°04'611.0
2017-Nov-17 13:30N 50°34' E 000°12'510.9
2017-Nov-17 13:00N 50°36' E 000°21'510.7
2017-Nov-17 12:30N 50°37' E 000°29'510.3
2017-Nov-17 12:00N 50°39' E 000°36'510.0
2017-Nov-17 11:30N 50°42' E 000°43'5 9.6
2017-Nov-17 11:00N 50°45' E 000°49'5 9.3
2017-Nov-17 10:30N 50°48' E 000°55'4 9.0
2017-Nov-17 10:00N 50°50' E 001°00'4 9.0
2017-Nov-17 09:30N 50°53' E 001°06'5 9.2
2017-Nov-17 09:00N 50°56' E 001°12'5 9.9
2017-Nov-17 08:30N 50°59' E 001°18'611.3
2017-Nov-17 08:00N 51°03' E 001°25'612.8
2017-Nov-17 07:30N 51°07' E 001°33'713.2
2017-Nov-17 07:00N 51°11' E 001°41'612.4
2017-Nov-17 06:30N 51°16' E 001°47'612.3
2017-Nov-17 06:00N 51°21' E 001°52'611.4
2017-Nov-17 05:30N 51°26' E 001°56'510.5
2017-Nov-17 05:00N 51°30' E 002°01'510.0
2017-Nov-17 04:30N 51°34' E 002°07'5 9.6
2017-Nov-17 04:00N 51°38' E 002°12'5 9.2
2017-Nov-17 03:28N 51°41' E 002°17'76 8.7
2017-Nov-16 18:48N 52°30' E 003°51'3 9.3
2017-Nov-16 18:28N 52°30' E 003°56'4 9.0
2017-Nov-16 18:00N 52°30' E 004°03'4 8.9
2017-Nov-16 17:30N 52°30' E 004°11'4 8.7
2017-Nov-16 17:00N 52°30' E 004°18'4 8.8
2017-Nov-16 16:30N 52°29' E 004°25'4 9.0
2017-Nov-16 16:00N 52°28' E 004°32'2 4.9
2017-Nov-16 15:30N 52°28' E 004°36'1 2.3
2017-Nov-16 15:00N 52°28' E 004°38'0 0.1
2017-Nov-16 14:00N 52°28' E 004°38'0 0.2
2017-Nov-16 13:30N 52°28' E 004°38'0 0.0
2017-Nov-16 13:00N 52°28' E 004°38'0 0.1
2017-Nov-16 12:30N 52°28' E 004°38'0 0.0
2017-Nov-16 12:00N 52°28' E 004°38'0 0.0
2017-Nov-16 11:30N 52°28' E 004°38'0 0.0
2017-Nov-16 11:00N 52°28' E 004°38'0 0.1
2017-Nov-16 10:30N 52°28' E 004°38'0 0.1
2017-Nov-16 10:00N 52°28' E 004°38'0 0.0
2017-Nov-16 09:30N 52°28' E 004°38'0 0.0
2017-Nov-16 09:00N 52°28' E 004°38'0 0.0
2017-Nov-16 08:30N 52°28' E 004°38'0 0.0
2017-Nov-16 08:00N 52°28' E 004°38'0 0.0
2017-Nov-16 07:29N 52°28' E 004°38'0 0.0
2017-Nov-16 06:59N 52°28' E 004°38'0 0.0
2017-Nov-16 06:26N 52°28' E 004°38'0 0.0
2017-Nov-16 05:59N 52°28' E 004°38'0 0.0
2017-Nov-16 05:29N 52°28' E 004°38'0 0.0
2017-Nov-16 04:59N 52°28' E 004°38'0 0.0
2017-Nov-16 04:29N 52°28' E 004°38'0 0.0
2017-Nov-16 03:59N 52°28' E 004°38'0 0.0
2017-Nov-16 03:29N 52°28' E 004°38'0 0.0
2017-Nov-16 02:59N 52°28' E 004°38'0 0.0
2017-Nov-16 02:29N 52°28' E 004°38'0 0.0
2017-Nov-16 01:59N 52°28' E 004°38'0 0.1
2017-Nov-16 01:29N 52°28' E 004°38'0 0.0
2017-Nov-16 00:59N 52°28' E 004°38'0 0.0
2017-Nov-16 00:29N 52°28' E 004°38'0 0.0
2017-Nov-15 23:59N 52°28' E 004°38'0 0.0
2017-Nov-15 23:29N 52°28' E 004°38'0 0.0
2017-Nov-15 22:59N 52°28' E 004°38'0 0.0
2017-Nov-15 22:26N 52°28' E 004°38'0 0.0
2017-Nov-15 21:59N 52°28' E 004°38'0 0.0
2017-Nov-15 21:29N 52°28' E 004°38'0 0.0
2017-Nov-15 20:58N 52°28' E 004°38'0 0.0
2017-Nov-15 20:28N 52°28' E 004°38'0 0.0
2017-Nov-15 19:58N 52°28' E 004°38'0 0.0
2017-Nov-15 19:28N 52°28' E 004°38'0 0.0
2017-Nov-15 18:58N 52°28' E 004°38'0 0.0
2017-Nov-15 18:28N 52°28' E 004°38'0 0.0
2017-Nov-15 17:58N 52°28' E 004°38'0 0.0
2017-Nov-15 17:28N 52°28' E 004°38'0 0.0
2017-Nov-15 16:55N 52°28' E 004°38'0 0.0
2017-Nov-15 16:28N 52°28' E 004°38'0 0.0
2017-Nov-15 15:58N 52°28' E 004°38'0 0.1
2017-Nov-15 15:28N 52°28' E 004°38'0 0.1
2017-Nov-15 14:58N 52°28' E 004°38'0 0.0
2017-Nov-15 14:25N 52°28' E 004°38'0 0.0
2017-Nov-15 13:58N 52°28' E 004°38'0 0.0
2017-Nov-15 13:30N 52°28' E 004°38'1 1.6
2017-Nov-15 13:00N 52°28' E 004°37'1 1.1
2017-Nov-15 12:30N 52°28' E 004°36'0 0.9
2017-Nov-15 12:01N 52°28' E 004°35'1 1.3
2017-Nov-15 11:30N 52°28' E 004°36'0 0.0
2017-Nov-15 11:00N 52°28' E 004°36'0 0.0
2017-Nov-15 10:30N 52°28' E 004°36'0 0.0
2017-Nov-15 10:00N 52°28' E 004°36'0 0.0
2017-Nov-15 09:30N 52°28' E 004°36'0 0.0
2017-Nov-15 09:00N 52°28' E 004°36'0 0.0
2017-Nov-15 08:30N 52°28' E 004°36'0 0.0
2017-Nov-15 08:00N 52°28' E 004°36'0 0.0
2017-Nov-15 07:30N 52°28' E 004°36'0 0.0
2017-Nov-15 07:00N 52°28' E 004°36'0 0.0
2017-Nov-15 06:30N 52°28' E 004°36'0 0.0
2017-Nov-15 06:00N 52°28' E 004°36'0 0.0
2017-Nov-15 05:30N 52°28' E 004°36'0 0.0
2017-Nov-15 05:00N 52°28' E 004°36'0 0.0
2017-Nov-15 04:30N 52°28' E 004°36'0 0.0
2017-Nov-15 04:00N 52°28' E 004°36'0 0.0
2017-Nov-15 03:30N 52°28' E 004°36'0 0.0
2017-Nov-15 03:00N 52°28' E 004°36'0 0.0
2017-Nov-15 02:30N 52°28' E 004°36'0 0.0
2017-Nov-15 02:00N 52°28' E 004°36'0 0.1
2017-Nov-15 01:30N 52°28' E 004°36'0 0.1
2017-Nov-15 01:00N 52°28' E 004°36'0 0.0
2017-Nov-15 00:30N 52°28' E 004°36'0 0.0
2017-Nov-14 23:54N 52°28' E 004°36'0 0.0
2017-Nov-14 23:30N 52°28' E 004°36'0 0.0
2017-Nov-14 23:00N 52°28' E 004°36'0 0.0
2017-Nov-14 22:30N 52°28' E 004°36'0 0.0
2017-Nov-14 22:00N 52°28' E 004°36'2 4.7
2017-Nov-14 21:30N 52°28' E 004°32'4 8.8
2017-Nov-14 21:00N 52°28' E 004°25'4 8.4
2017-Nov-14 20:30N 52°29' E 004°18'5 9.0
2017-Nov-14 20:00N 52°29' E 004°11'4 8.6
2017-Nov-14 19:30N 52°28' E 004°04'4 8.5
2017-Nov-14 19:00N 52°27' E 003°57'4 8.0
2017-Nov-14 18:30N 52°25' E 003°51'4 8.0
2017-Nov-14 18:00N 52°23' E 003°46'4 8.1
2017-Nov-14 17:30N 52°21' E 003°40'4 8.0
2017-Nov-14 17:00N 52°19' E 003°35'4 8.2
2017-Nov-14 16:29N 52°16' E 003°29'54 9.6
2017-Nov-14 10:52N 51°38' E 002°28'510.5
2017-Nov-14 10:22N 51°34' E 002°23'510.6
2017-Nov-14 09:56N 51°31' E 002°18'510.7
2017-Nov-14 09:30N 51°27' E 002°13'510.3
2017-Nov-14 09:00N 51°22' E 002°10'510.4
2017-Nov-14 08:30N 51°17' E 002°07'510.0
2017-Nov-14 08:00N 51°13' E 002°02'510.2
2017-Nov-14 07:30N 51°10' E 001°56'5 9.9
2017-Nov-14 07:00N 51°07' E 001°49'5 9.5
2017-Nov-14 06:30N 51°04' E 001°44'5 9.1
2017-Nov-14 06:00N 51°00' E 001°40'4 8.1
2017-Nov-14 05:30N 50°57' E 001°35'4 7.9
2017-Nov-14 05:00N 50°54' E 001°31'4 7.3
2017-Nov-14 04:29N 50°51' E 001°29'297 7.6
2017-Nov-12 13:33N 48°48' W 005°32'6 6.4
2017-Nov-12 12:34N 48°43' W 005°37'0 6.6
2017-Nov-12 12:30N 48°43' W 005°37'5 6.8
2017-Nov-12 11:41N 48°38' W 005°41'3 7.1
2017-Nov-12 11:20N 48°36' W 005°43'3 6.5
2017-Nov-12 10:56N 48°33' W 005°42'3 6.8
2017-Nov-12 10:25N 48°30' W 005°40'6 7.1
2017-Nov-12 09:36N 48°24' W 005°37'3 7.3
2017-Nov-12 09:14N 48°22' W 005°36'2 7.6
2017-Nov-12 08:59N 48°20' W 005°35'4 7.5
2017-Nov-12 08:30N 48°17' W 005°33'4 7.7
2017-Nov-12 07:56N 48°12' W 005°31'3 7.8
2017-Nov-12 07:30N 48°09' W 005°30'4 7.7
2017-Nov-12 07:00N 48°06' W 005°28'4 7.7
2017-Nov-12 06:27N 48°02' W 005°25'3 7.6
2017-Nov-12 06:00N 47°58' W 005°24'4 7.5
2017-Nov-12 05:30N 47°55' W 005°22'4 7.2
2017-Nov-12 05:00N 47°51' W 005°20'4 7.0
2017-Nov-12 04:26N 47°48' W 005°18'3 6.7
2017-Nov-12 03:58N 47°45' W 005°17'3 6.7
2017-Nov-12 03:29N 47°42' W 005°15'3 6.5
2017-Nov-12 02:59N 47°39' W 005°13'4 6.5
2017-Nov-12 02:27N 47°35' W 005°12'3 6.3
2017-Nov-12 02:00N 47°33' W 005°10'4 6.6
2017-Nov-12 01:26N 47°29' W 005°09'20 6.5
2017-Nov-11 22:23N 47°10' W 004°59'50 6.8
2017-Nov-11 15:03N 46°23' W 004°36'0 6.1
2017-Nov-11 15:00N 46°23' W 004°36'3 6.2
2017-Nov-11 14:29N 46°20' W 004°34'151 7.3
2017-Nov-10 17:56N 43°58' W 003°22'3 7.2
2017-Nov-10 17:30N 43°55' W 003°21'6 7.2
2017-Nov-10 16:43N 43°50' W 003°18'2 7.4
2017-Nov-10 16:26N 43°48' W 003°17'3 7.5
2017-Nov-10 16:00N 43°45' W 003°16'4 7.7
2017-Nov-10 15:30N 43°41' W 003°14'4 7.9
2017-Nov-10 15:00N 43°38' W 003°12'4 7.8
2017-Nov-10 14:30N 43°34' W 003°11'4 8.1
2017-Nov-10 14:00N 43°30' W 003°09'4 8.1
2017-Nov-10 13:30N 43°26' W 003°07'4 8.2
2017-Nov-10 13:00N 43°23' W 003°05'1 2.5
2017-Nov-10 12:30N 43°22' W 003°04'0 0.0
2017-Nov-10 12:00N 43°22' W 003°04'0 0.0
2017-Nov-10 11:30N 43°22' W 003°04'0 0.0
2017-Nov-10 11:00N 43°22' W 003°04'0 0.0
2017-Nov-10 10:30N 43°22' W 003°04'0 0.0
2017-Nov-10 10:00N 43°22' W 003°04'0 0.0
2017-Nov-10 09:29N 43°22' W 003°04'0 0.0
2017-Nov-10 08:59N 43°22' W 003°04'0 0.0
2017-Nov-10 08:29N 43°22' W 003°04'0 0.0
2017-Nov-10 07:59N 43°22' W 003°04'0 0.0
2017-Nov-10 07:29N 43°22' W 003°04'0 0.0
2017-Nov-10 06:59N 43°22' W 003°04'0 0.0
2017-Nov-10 06:26N 43°22' W 003°04'0 0.0
2017-Nov-10 05:59N 43°22' W 003°04'0 0.0
2017-Nov-10 05:29N 43°22' W 003°04'0 0.0
2017-Nov-10 04:59N 43°22' W 003°04'0 0.0
2017-Nov-10 04:29N 43°22' W 003°04'0 0.0
2017-Nov-10 03:59N 43°22' W 003°04'0 0.0
2017-Nov-10 03:29N 43°22' W 003°04'0 0.0
2017-Nov-10 02:59N 43°22' W 003°04'0 0.0
2017-Nov-10 02:29N 43°22' W 003°04'0 0.0
2017-Nov-10 01:59N 43°22' W 003°04'0 0.0
2017-Nov-10 01:29N 43°22' W 003°04'0 0.0
2017-Nov-10 00:59N 43°22' W 003°04'0 0.0
2017-Nov-10 00:29N 43°22' W 003°04'0 0.0
2017-Nov-09 23:59N 43°22' W 003°04'0 0.0
2017-Nov-09 23:29N 43°22' W 003°04'0 0.0
2017-Nov-09 22:59N 43°22' W 003°04'0 0.0
2017-Nov-09 22:29N 43°22' W 003°04'0 0.0
2017-Nov-09 21:59N 43°22' W 003°04'0 0.0
2017-Nov-09 21:29N 43°22' W 003°04'0 0.0
2017-Nov-09 20:59N 43°22' W 003°04'0 0.0
2017-Nov-09 20:29N 43°22' W 003°04'0 0.0
2017-Nov-09 19:59N 43°22' W 003°04'0 0.0
2017-Nov-09 19:29N 43°22' W 003°04'0 0.0
2017-Nov-09 18:59N 43°22' W 003°04'0 0.0
2017-Nov-09 18:29N 43°22' W 003°04'0 0.0
2017-Nov-09 17:59N 43°22' W 003°04'0 0.0
2017-Nov-09 17:29N 43°22' W 003°04'0 0.0
2017-Nov-09 16:59N 43°22' W 003°04'0 0.0
2017-Nov-09 16:29N 43°22' W 003°04'0 0.0
2017-Nov-09 15:59N 43°22' W 003°04'0 0.0
2017-Nov-09 15:29N 43°22' W 003°04'0 0.0
2017-Nov-09 14:59N 43°22' W 003°04'0 0.0
2017-Nov-09 14:29N 43°22' W 003°04'0 0.0
2017-Nov-09 13:59N 43°22' W 003°04'0 0.0
2017-Nov-09 13:29N 43°22' W 003°04'0 0.0
2017-Nov-09 12:59N 43°22' W 003°04'0 0.0
2017-Nov-09 12:29N 43°22' W 003°04'0 0.8
2017-Nov-09 12:00N 43°21' W 003°03'1 2.2
2017-Nov-09 11:29N 43°20' W 003°02'0 0.0
2017-Nov-09 10:59N 43°20' W 003°02'0 0.0
2017-Nov-09 10:29N 43°20' W 003°02'0 0.0
2017-Nov-09 09:59N 43°20' W 003°02'0 0.0
2017-Nov-09 09:29N 43°20' W 003°02'0 0.0
2017-Nov-09 08:58N 43°20' W 003°02'0 0.0
2017-Nov-09 08:28N 43°20' W 003°02'0 0.0
2017-Nov-09 07:58N 43°20' W 003°02'0 0.0
2017-Nov-09 07:28N 43°20' W 003°02'0 0.0
2017-Nov-09 06:58N 43°20' W 003°02'0 0.0
2017-Nov-09 06:28N 43°20' W 003°02'0 0.0
2017-Nov-09 05:58N 43°20' W 003°02'0 0.0
2017-Nov-09 05:28N 43°20' W 003°02'0 0.0
2017-Nov-09 04:58N 43°20' W 003°02'  

Dump ship's entire track history